Time;durP1;ratioP1;P1;durP2;ratioP2;P2;SDS_P1;SDS_P2;PMS_P1;PMS_P2;Temp;Humidity;BMP_temperature;BMP_pressure;BME280_temperature;BME280_humidity;BME280_pressure;Samples;Min_cycle;Max_cycle;Signal;HPM_P1;HPM_P2
2023/05/07 00:00:08;;;;;;;;;2.00;2.00;;;;;17.98;100.00;101161.78;5076668;28;45613;-75
2023/05/07 00:02:33;;;;;;;;;3.00;3.00;;;;;17.98;100.00;101166.25;5096005;27;46555;-73
2023/05/07 00:04:59;;;;;;;;;3.00;3.00;;;;;17.97;100.00;101165.34;5076080;28;45371;-74
2023/05/07 00:07:24;;;;;;;;;3.00;3.00;;;;;17.98;100.00;101158.22;5079948;28;58830;-74
2023/05/07 00:09:49;;;;;;;;;4.00;4.00;;;;;17.96;100.00;101160.03;5081430;27;50619;-74
2023/05/07 00:12:15;;;;;;;;;3.00;3.00;;;;;17.96;100.00;101163.59;5079039;28;56482;-74
2023/05/07 00:14:40;;;;;;;;;2.00;2.00;;;;;17.96;100.00;101155.59;5080037;28;45229;-74
2023/05/07 00:17:06;;;;;;;;;2.33;2.33;;;;;17.97;100.00;101164.47;5078667;28;62652;-75
2023/05/07 00:19:31;;;;;;;;;2.00;2.00;;;;;17.97;100.00;101168.03;5071798;28;59167;-74
2023/05/07 00:21:58;;;;;;;;;3.00;3.00;;;;;17.96;100.00;101165.38;5080784;28;45481;-74
2023/05/07 00:24:23;;;;;;;;;3.00;3.00;;;;;17.97;100.00;101180.50;5081169;27;45365;-75
2023/05/07 00:26:49;;;;;;;;;3.33;3.33;;;;;17.98;100.00;101176.94;5073670;28;46501;-74
2023/05/07 00:29:14;;;;;;;;;3.33;2.00;;;;;17.97;100.00;101168.03;5074424;28;51802;-73
2023/05/07 00:31:39;;;;;;;;;2.00;2.00;;;;;17.98;100.00;101164.44;5060135;28;46965;-74
2023/05/07 00:34:05;;;;;;;;;3.67;2.00;;;;;18.00;100.00;101170.66;5074847;28;45445;-74
2023/05/07 00:36:31;;;;;;;;;2.67;2.00;;;;;18.01;100.00;101174.22;5080996;28;45262;-74
2023/05/07 00:38:58;;;;;;;;;5.33;3.00;;;;;18.00;100.00;101170.66;5081759;28;45427;-73
2023/05/07 00:41:23;;;;;;;;;3.00;3.00;;;;;17.99;100.00;101170.66;5080418;28;46651;-75
2023/05/07 00:43:51;;;;;;;;;2.33;2.33;;;;;17.98;100.00;101161.78;5079166;27;45429;-74
2023/05/07 00:46:16;;;;;;;;;3.00;3.00;;;;;17.98;100.00;101163.56;5069935;28;45443;-74
2023/05/07 00:48:42;;;;;;;;;3.00;3.00;;;;;17.98;100.00;101169.78;5075339;28;52028;-74
2023/05/07 00:51:07;;;;;;;;;2.00;2.00;;;;;17.99;100.00;101159.97;5082301;28;46356;-74
2023/05/07 00:53:33;;;;;;;;;4.00;4.00;;;;;18.00;100.00;101162.66;5074837;27;45501;-74
2023/05/07 00:55:58;;;;;;;;;4.00;4.00;;;;;18.00;100.00;101156.41;5075121;28;45502;-74
2023/05/07 00:58:23;;;;;;;;;5.67;5.00;;;;;18.01;100.00;101152.84;5072822;28;45525;-77
2023/05/07 01:00:49;;;;;;;;;3.00;3.00;;;;;18.01;100.00;101142.16;5074588;28;45858;-73
2023/05/07 01:03:15;;;;;;;;;6.33;4.00;;;;;18.02;100.00;101152.81;5075014;28;46339;-74
2023/05/07 01:05:42;;;;;;;;;4.00;4.00;;;;;17.98;100.00;101136.84;5076434;28;45486;-75
2023/05/07 01:08:07;;;;;;;;;5.00;4.00;;;;;18.02;100.00;101141.25;5079818;27;45630;-74
2023/05/07 01:10:32;;;;;;;;;4.00;4.00;;;;;18.03;100.00;101148.34;5076340;27;54552;-74
2023/05/07 01:12:58;;;;;;;;;3.33;3.33;;;;;18.02;100.00;101146.59;5074069;27;60019;-74
2023/05/07 01:15:24;;;;;;;;;5.00;5.00;;;;;18.04;100.00;101148.31;5069464;28;45403;-75
2023/05/07 01:17:49;;;;;;;;;6.33;5.00;;;;;18.05;100.00;101147.41;5072760;27;59311;-73
2023/05/07 01:20:15;;;;;;;;;4.00;4.00;;;;;18.05;100.00;101141.19;5073723;28;46775;-76
2023/05/07 01:22:43;;;;;;;;;3.00;3.00;;;;;18.08;100.00;101135.81;5076401;28;45445;-74
2023/05/07 01:25:08;;;;;;;;;2.67;2.67;;;;;18.09;100.00;101134.03;5074906;28;45384;-74
2023/05/07 01:27:35;;;;;;;;;2.00;2.00;;;;;18.09;100.00;101137.56;5077796;27;45319;-74
2023/05/07 01:30:01;;;;;;;;;2.00;2.00;;;;;18.09;100.00;101128.66;5073530;27;45857;-74
2023/05/07 01:32:38;;;;;;;;;2.00;2.00;;;;;18.11;100.00;101129.53;5070640;28;46354;-73
2023/05/07 01:35:05;;;;;;;;;2.00;2.00;;;;;18.11;100.00;101135.78;5068446;28;45273;-74
2023/05/07 01:37:31;;;;;;;;;3.33;1.33;;;;;18.14;100.00;101145.53;5180789;22;46136;-74
2023/05/07 01:39:56;;;;;;;;;2.00;2.00;;;;;18.13;100.00;101141.09;5054747;28;47050;-74
2023/05/07 01:42:21;;;;;;;;;1.00;1.00;;;;;18.12;100.00;101142.88;5052083;28;57258;-74
2023/05/07 01:44:47;;;;;;;;;1.00;1.00;;;;;18.09;100.00;101139.34;5057111;28;45146;-74
2023/05/07 01:47:13;;;;;;;;;0.00;0.00;;;;;18.08;100.00;101149.16;5055847;28;45211;-73
2023/05/07 01:49:39;;;;;;;;;0.00;0.00;;;;;18.06;100.00;101148.31;5055610;28;46765;-73
2023/05/07 01:52:05;;;;;;;;;1.00;1.00;;;;;18.05;100.00;101151.88;5052898;28;45444;-73
2023/05/07 01:54:31;;;;;;;;;1.00;1.00;;;;;18.03;100.00;101151.03;5053014;28;46569;-73
2023/05/07 01:56:57;;;;;;;;;1.00;1.00;;;;;18.04;100.00;101152.78;5054482;28;45394;-74
2023/05/07 01:59:22;;;;;;;;;0.33;0.33;;;;;18.03;100.00;101149.22;5057048;28;45668;-74
2023/05/07 02:01:47;;;;;;;;;0.67;0.67;;;;;18.02;100.00;101138.56;5047080;28;50182;-74
2023/05/07 02:04:13;;;;;;;;;3.00;1.67;;;;;18.04;100.00;101148.31;5051658;28;61470;-75
2023/05/07 02:06:38;;;;;;;;;1.00;1.00;;;;;18.02;100.00;101138.56;5056249;28;59240;-75
2023/05/07 02:09:03;;;;;;;;;3.00;1.00;;;;;18.04;100.00;101137.63;5050211;28;66339;-74
2023/05/07 02:11:29;;;;;;;;;1.00;1.00;;;;;18.01;100.00;101135.03;5051421;28;45312;-74
2023/05/07 02:13:54;;;;;;;;;2.67;1.33;;;;;18.04;100.00;101142.97;5049872;28;59739;-74
2023/05/07 02:16:21;;;;;;;;;1.00;1.00;;;;;18.04;100.00;101148.31;5055147;28;45593;-73
2023/05/07 02:18:46;;;;;;;;;0.33;0.33;;;;;18.04;100.00;101152.78;5056096;28;47223;-74
2023/05/07 02:21:11;;;;;;;;;1.00;1.00;;;;;18.04;100.00;101155.47;5051771;28;60952;-73
2023/05/07 02:23:37;;;;;;;;;3.00;1.00;;;;;18.02;100.00;101163.50;5038538;28;47120;-74
2023/05/07 02:26:03;;;;;;;;;1.00;1.00;;;;;18.03;100.00;101167.06;5048541;28;45177;-74
2023/05/07 02:28:29;;;;;;;;;0.67;0.67;;;;;18.03;100.00;101162.59;5053061;28;46760;-73
2023/05/07 02:30:54;;;;;;;;;1.00;1.00;;;;;18.03;100.00;101170.63;5050593;28;45443;-74
2023/05/07 02:33:20;;;;;;;;;1.00;1.00;;;;;18.03;100.00;101170.63;5055614;28;45303;-74
2023/05/07 02:35:45;;;;;;;;;0.00;0.00;;;;;18.02;100.00;101171.53;5056474;28;45575;-73
2023/05/07 02:38:10;;;;;;;;;1.00;1.00;;;;;18.03;100.00;101175.06;5054441;28;45835;-74
2023/05/07 02:40:39;;;;;;;;;1.00;1.00;;;;;18.03;100.00;101167.94;5055246;28;45521;-74
2023/05/07 02:43:05;;;;;;;;;0.67;0.67;;;;;18.04;100.00;101176.84;5066370;28;45402;-74
2023/05/07 02:45:30;;;;;;;;;1.00;1.00;;;;;18.02;100.00;101174.19;5055830;28;45629;-74
2023/05/07 02:47:56;;;;;;;;;1.00;1.00;;;;;18.04;100.00;101177.72;5054632;28;45629;-74
2023/05/07 02:50:21;;;;;;;;;1.00;1.00;;;;;18.04;100.00;101179.50;5054021;28;58070;-74
2023/05/07 02:52:47;;;;;;;;;3.00;1.00;;;;;18.05;100.00;101175.94;5052443;28;58740;-76
2023/05/07 02:55:12;;;;;;;;;1.00;1.00;;;;;18.05;100.00;101173.25;5051203;28;45400;-75
2023/05/07 02:57:38;;;;;;;;;1.00;1.00;;;;;18.05;100.00;101175.94;5055119;28;45646;-75
2023/05/07 03:00:14;;;;;;;;;1.33;1.33;;;;;18.04;100.00;101171.50;5054531;28;45549;-74
2023/05/07 03:02:40;;;;;;;;;1.00;1.00;;;;;18.05;100.00;101175.94;5052886;28;45399;-75
2023/05/07 03:05:06;;;;;;;;;1.00;1.00;;;;;18.03;100.00;101170.63;5052655;28;47274;-74
2023/05/07 03:07:31;;;;;;;;;1.00;1.00;;;;;18.03;100.00;101162.59;5054456;28;45807;-73
2023/05/07 03:09:57;;;;;;;;;2.00;2.00;;;;;18.03;100.00;101167.06;5044240;28;45459;-74
2023/05/07 03:12:22;;;;;;;;;2.33;2.33;;;;;18.02;100.00;101163.50;5053361;28;62143;-74
2023/05/07 03:14:47;;;;;;;;;3.00;2.00;;;;;18.01;100.00;101166.22;5049635;28;45527;-74
2023/05/07 03:17:13;;;;;;;;;2.00;2.00;;;;;18.01;100.00;101168.88;5054040;28;68255;-74
2023/05/07 03:19:38;;;;;;;;;5.33;3.00;;;;;18.03;100.00;101164.38;5052528;28;57047;-75
2023/05/07 03:22:03;;;;;;;;;3.00;1.00;;;;;18.03;100.00;101177.75;5052946;28;60115;-74
2023/05/07 03:24:29;;;;;;;;;2.00;2.00;;;;;18.02;100.00;101179.53;5052391;28;58993;-74
2023/05/07 03:26:54;;;;;;;;;2.00;2.00;;;;;18.01;100.00;101174.22;5055130;28;45746;-74
2023/05/07 03:29:19;;;;;;;;;4.00;2.67;;;;;18.01;100.00;101171.56;5031604;28;61593;-76
2023/05/07 03:31:45;;;;;;;;;2.00;2.00;;;;;18.03;100.00;101178.63;5054786;28;45654;-76
2023/05/07 03:34:10;;;;;;;;;2.00;2.00;;;;;18.04;100.00;101171.50;5048020;28;49444;-74
2023/05/07 03:36:35;;;;;;;;;2.33;2.33;;;;;18.04;100.00;101171.50;5054013;28;57111;-76
2023/05/07 03:39:01;;;;;;;;;4.33;2.00;;;;;18.03;100.00;101165.25;5046430;28;64594;-74
2023/05/07 03:41:26;;;;;;;;;3.33;2.00;;;;;18.03;100.00;101162.59;5054691;28;60853;-75
2023/05/07 03:43:51;;;;;;;;;1.33;1.33;;;;;18.04;100.00;101155.47;5054240;28;45520;-74
2023/05/07 03:46:17;;;;;;;;;1.67;1.67;;;;;18.02;100.00;101155.50;5047618;28;50703;-74
2023/05/07 03:48:42;;;;;;;;;1.00;1.00;;;;;18.02;100.00;101163.50;5052155;28;62382;-76
2023/05/07 03:51:07;;;;;;;;;1.00;1.00;;;;;18.02;100.00;101162.63;5055146;28;45322;-74
2023/05/07 03:53:33;;;;;;;;;0.00;0.00;;;;;18.01;100.00;101163.53;5053189;28;45565;-74
2023/05/07 03:55:58;;;;;;;;;0.00;0.00;;;;;18.02;100.00;101171.53;5052572;28;63743;-74
2023/05/07 03:58:23;;;;;;;;;0.67;0.67;;;;;18.02;100.00;101170.66;5037230;28;45910;-74
2023/05/07 04:00:49;;;;;;;;;0.33;0.33;;;;;18.00;100.00;101173.34;5050304;28;57437;-76
2023/05/07 04:03:15;;;;;;;;;1.00;1.00;;;;;17.97;100.00;101178.72;5050864;28;45437;-73
2023/05/07 04:05:40;;;;;;;;;2.67;0.33;;;;;17.98;100.00;101187.63;5051767;28;45736;-74
2023/05/07 04:08:06;;;;;;;;;1.00;1.00;;;;;17.96;100.00;101193.00;5050561;28;45546;-74
2023/05/07 04:10:31;;;;;;;;;0.00;0.00;;;;;17.96;100.00;101189.44;5053353;28;63815;-74
2023/05/07 04:12:57;;;;;;;;;1.33;0.00;;;;;17.94;100.00;101185.88;5047972;28;56083;-73
2023/05/07 04:15:23;;;;;;;;;0.33;0.33;;;;;17.94;100.00;101185.88;5050060;28;47595;-74
2023/05/07 04:17:48;;;;;;;;;2.00;1.00;;;;;17.91;100.00;101181.47;5049756;28;45272;-75
2023/05/07 04:20:16;;;;;;;;;0.33;0.33;;;;;17.93;100.00;101189.47;5054767;28;58544;-74
2023/05/07 04:22:42;;;;;;;;;0.00;0.00;;;;;17.93;100.00;101182.31;5057419;28;45294;-74
2023/05/07 04:25:09;;;;;;;;;1.00;0.00;;;;;17.92;100.00;101182.34;5058594;28;45616;-74
2023/05/07 04:27:34;;;;;;;;;1.33;0.00;;;;;17.92;100.00;101193.03;5056785;28;45401;-74
2023/05/07 04:30:00;;;;;;;;;2.67;1.00;;;;;17.91;100.00;101192.16;5056901;28;45362;-74
2023/05/07 04:32:26;;;;;;;;;0.67;0.67;;;;;17.91;100.00;101201.97;5057313;28;45481;-74
2023/05/07 04:34:52;;;;;;;;;0.33;0.33;;;;;17.88;100.00;101196.66;5072386;28;46600;-73
2023/05/07 04:37:17;;;;;;;;;1.00;1.00;;;;;17.84;100.00;101202.94;5068270;28;45334;-74
2023/05/07 04:39:42;;;;;;;;;4.33;1.00;;;;;17.83;100.00;101206.50;5057315;28;45340;-74
2023/05/07 04:42:08;;;;;;;;;1.00;1.00;;;;;17.83;100.00;101207.41;5054209;28;46005;-74
2023/05/07 04:44:35;;;;;;;;;2.00;2.00;;;;;17.84;100.00;101210.94;5056113;28;46617;-74
2023/05/07 04:47:00;;;;;;;;;2.00;2.00;;;;;17.82;100.00;101212.78;5039950;28;45470;-73
2023/05/07 04:49:25;;;;;;;;;1.00;1.00;;;;;17.84;100.00;101206.50;5056881;28;45557;-75
2023/05/07 04:51:51;;;;;;;;;3.00;1.00;;;;;17.84;100.00;101218.97;5057309;28;45478;-75
2023/05/07 04:54:16;;;;;;;;;2.00;2.00;;;;;17.84;100.00;101214.50;5056623;28;61155;-73
2023/05/07 04:56:41;;;;;;;;;1.00;1.00;;;;;17.84;100.00;101221.63;5057319;28;54824;-73
2023/05/07 04:59:07;;;;;;;;;4.00;1.00;;;;;17.84;100.00;101225.19;5054357;28;57473;-73
2023/05/07 05:01:32;;;;;;;;;1.00;1.00;;;;;17.82;100.00;101224.34;5056425;28;56136;-73
2023/05/07 05:03:59;;;;;;;;;1.00;1.00;;;;;17.84;100.00;101222.50;5051542;28;45497;-74
2023/05/07 05:06:25;;;;;;;;;1.00;1.00;;;;;17.82;100.00;101215.44;5053731;28;45389;-73
2023/05/07 05:08:50;;;;;;;;;1.00;1.00;;;;;17.81;100.00;101222.56;5056815;28;45452;-73
2023/05/07 05:11:16;;;;;;;;;0.67;0.67;;;;;17.76;100.00;101227.09;5049244;28;53552;-73
2023/05/07 05:13:41;;;;;;;;;2.67;1.00;;;;;17.75;100.00;101222.66;5053488;28;46159;-73
2023/05/07 05:16:06;;;;;;;;;4.33;1.33;;;;;17.73;100.00;101230.66;5053576;28;52019;-73
2023/05/07 05:18:32;;;;;;;;;3.00;2.00;;;;;17.69;100.00;101228.91;5055555;28;59739;-74
2023/05/07 05:20:58;;;;;;;;;5.67;1.33;;;;;17.67;100.00;101225.38;5056489;28;45474;-74
2023/05/07 05:23:23;;;;;;;;;4.33;3.00;;;;;17.67;100.00;101235.16;5051874;28;71465;-73
2023/05/07 05:25:48;;;;;;;;;1.00;1.00;;;;;17.64;100.00;101241.44;5054362;28;45465;-73
2023/05/07 05:28:14;;;;;;;;;5.67;4.00;;;;;17.65;100.00;101243.22;5057965;28;45310;-74
2023/05/07 05:30:39;;;;;;;;;4.00;4.00;;;;;17.66;100.00;101247.63;5053326;28;55677;-73
2023/05/07 05:33:05;;;;;;;;;2.67;2.67;;;;;17.67;100.00;101251.19;5051152;28;46553;-74
2023/05/07 05:35:31;;;;;;;;;3.00;3.00;;;;;17.65;100.00;101248.53;5056594;28;46664;-73
2023/05/07 05:37:57;;;;;;;;;3.33;2.33;;;;;17.67;100.00;101251.19;5049374;28;45499;-74
2023/05/07 05:40:22;;;;;;;;;3.00;2.00;;;;;17.67;100.00;101252.06;5055138;28;45496;-73
2023/05/07 05:42:47;;;;;;;;;1.00;1.00;;;;;17.66;100.00;101242.28;5050833;28;60045;-74
2023/05/07 05:45:12;;;;;;;;;2.00;1.00;;;;;17.69;100.00;101252.97;5055617;28;46901;-73
2023/05/07 05:47:39;;;;;;;;;0.00;0.00;;;;;17.73;100.00;101262.72;5054503;28;46173;-73
2023/05/07 05:50:06;;;;;;;;;2.00;1.00;;;;;17.74;100.00;101264.50;5053358;28;45659;-74
2023/05/07 05:52:31;;;;;;;;;0.33;0.33;;;;;17.76;100.00;101261.81;5052259;28;46621;-73
2023/05/07 05:54:56;;;;;;;;;0.00;0.00;;;;;17.76;100.00;101253.78;5052980;28;62210;-73
2023/05/07 05:57:22;;;;;;;;;1.00;1.00;;;;;17.79;100.00;101260.00;5054188;28;61881;-73
2023/05/07 05:59:47;;;;;;;;;0.33;0.33;;;;;17.79;100.00;101259.13;5055518;28;45284;-74
2023/05/07 06:02:12;;;;;;;;;1.00;1.00;;;;;17.82;100.00;101268.88;5056457;28;46428;-73
2023/05/07 06:04:38;;;;;;;;;0.00;0.00;;;;;17.82;100.00;101261.72;5045192;28;45520;-72
2023/05/07 06:07:03;;;;;;;;;1.00;1.00;;;;;17.84;100.00;101267.03;5048847;28;62831;-73
2023/05/07 06:09:28;;;;;;;;;0.00;0.00;;;;;17.84;100.00;101262.59;5050843;28;61628;-75
2023/05/07 06:11:54;;;;;;;;;1.33;0.00;;;;;17.84;100.00;101264.38;5055628;28;45582;-73
2023/05/07 06:14:19;;;;;;;;;0.00;0.00;;;;;17.87;100.00;101267.03;5048604;28;45343;-73
2023/05/07 06:16:45;;;;;;;;;1.00;1.00;;;;;17.87;100.00;101269.69;5052892;28;45178;-74
2023/05/07 06:19:10;;;;;;;;;1.00;0.00;;;;;17.90;100.00;101269.69;5053689;28;45476;-74
2023/05/07 06:21:35;;;;;;;;;0.00;0.00;;;;;17.90;100.00;101269.69;5049640;28;63506;-73
2023/05/07 06:24:00;;;;;;;;;0.33;0.33;;;;;17.93;100.00;101273.16;5050749;28;67076;-73
2023/05/07 06:26:26;;;;;;;;;1.00;1.00;;;;;18.00;100.00;101268.63;5049397;28;45365;-72
2023/05/07 06:28:51;;;;;;;;;0.00;0.00;;;;;18.03;100.00;101274.81;5056572;28;45465;-74
2023/05/07 06:31:20;;;;;;;;;0.00;0.00;;;;;18.06;100.00;101272.13;5052073;28;61521;-73
2023/05/07 06:33:45;;;;;;;;;2.00;0.00;;;;;18.11;100.00;101266.72;5065382;28;45418;-75
2023/05/07 06:36:11;;;;;;;;;0.00;0.00;;;;;18.16;100.00;101275.53;5055274;28;45616;-73
2023/05/07 06:38:36;;;;;;;;;0.67;0.33;;;;;18.21;100.00;101276.38;5053325;28;45545;-73
2023/05/07 06:41:01;;;;;;;;;1.33;0.00;;;;;18.26;100.00;101273.63;5052448;28;52624;-74
2023/05/07 06:43:27;;;;;;;;;0.00;0.00;;;;;18.28;100.00;101271.84;5049728;28;57848;-73
2023/05/07 06:45:52;;;;;;;;;1.00;1.00;;;;;18.33;100.00;101280.69;5051359;28;45470;-73
2023/05/07 06:48:17;;;;;;;;;0.00;0.00;;;;;18.34;100.00;101277.09;5046201;28;60626;-73
2023/05/07 06:50:43;;;;;;;;;0.00;0.00;;;;;18.36;100.00;101274.41;5052983;28;59713;-73
2023/05/07 06:53:08;;;;;;;;;0.00;0.00;;;;;18.36;100.00;101275.28;5055698;28;46249;-73
2023/05/07 06:55:33;;;;;;;;;0.00;0.00;;;;;18.35;100.00;101280.66;5049490;28;59355;-75
2023/05/07 06:58:00;;;;;;;;;1.67;0.00;;;;;18.34;100.00;101287.78;5046690;28;45304;-73
2023/05/07 07:00:26;;;;;;;;;0.00;0.00;;;;;18.33;100.00;101286.91;5052329;28;47528;-73
2023/05/07 07:02:52;;;;;;;;;0.00;0.00;;;;;18.34;100.00;101287.78;5055804;28;45385;-74
2023/05/07 07:05:17;;;;;;;;;0.33;0.33;;;;;18.30;100.00;101286.94;5053700;28;45454;-73
2023/05/07 07:07:43;;;;;;;;;0.00;0.00;;;;;18.30;100.00;101289.63;5054791;28;45588;-72
2023/05/07 07:10:09;;;;;;;;;0.33;0.00;;;;;18.29;100.00;101284.31;5051434;28;61850;-72
2023/05/07 07:12:34;;;;;;;;;1.00;1.00;;;;;18.28;100.00;101285.22;5047850;28;45655;-74
2023/05/07 07:14:59;;;;;;;;;0.00;0.00;;;;;18.30;100.00;101292.28;5068878;28;45741;-75
2023/05/07 07:17:25;;;;;;;;;2.00;0.33;;;;;18.32;100.00;101298.53;5050396;28;47877;-73
2023/05/07 07:19:50;;;;;;;;;2.00;0.33;;;;;18.32;100.00;101293.19;5036880;28;73057;-74
2023/05/07 07:22:16;;;;;;;;;0.00;0.00;;;;;18.31;100.00;101293.16;5047294;28;60735;-73
2023/05/07 07:24:41;;;;;;;;;1.00;1.00;;;;;18.33;100.00;101302.06;5051626;28;45443;-74
2023/05/07 07:27:06;;;;;;;;;0.00;0.00;;;;;18.34;100.00;101298.50;5050372;28;56951;-72
2023/05/07 07:29:32;;;;;;;;;0.00;0.00;;;;;18.35;100.00;101302.03;5046734;28;68965;-72
2023/05/07 07:31:57;;;;;;;;;1.00;0.00;;;;;18.36;100.00;101306.47;5040315;28;45507;-72
2023/05/07 07:34:22;;;;;;;;;0.00;0.00;;;;;18.35;100.00;101310.94;5045997;28;45484;-72
2023/05/07 07:36:48;;;;;;;;;0.00;0.00;;;;;18.37;100.00;101310.91;5052984;28;52031;-74
2023/05/07 07:39:13;;;;;;;;;1.00;1.00;;;;;18.31;100.00;101317.22;5036775;28;62155;-72
2023/05/07 07:41:39;;;;;;;;;1.00;1.00;;;;;18.37;100.00;101313.59;5043677;28;45743;-75
2023/05/07 07:44:07;;;;;;;;;1.00;1.00;;;;;18.38;100.00;101313.59;5052487;28;45814;-72
2023/05/07 07:46:32;;;;;;;;;1.00;1.00;;;;;18.40;100.00;101318.91;5055725;28;46555;-72
2023/05/07 07:48:59;;;;;;;;;1.00;1.00;;;;;18.41;100.00;101320.66;5046685;28;45615;-72
2023/05/07 07:51:25;;;;;;;;;1.00;1.00;;;;;18.44;100.00;101316.19;5052399;28;45352;-72
2023/05/07 07:53:50;;;;;;;;;1.00;1.00;;;;;18.46;100.00;101319.69;5049368;28;45623;-72
2023/05/07 07:56:15;;;;;;;;;1.00;0.33;;;;;18.48;100.00;101317.00;5050801;28;45437;-74
2023/05/07 07:58:41;;;;;;;;;1.00;1.00;;;;;18.51;100.00;101325.88;5056253;28;46185;-74
2023/05/07 08:01:06;;;;;;;;;3.00;1.00;;;;;18.55;100.00;101324.94;5062052;28;46862;-73
2023/05/07 08:03:32;;;;;;;;;0.33;0.33;;;;;18.57;100.00;101327.56;5055871;27;45593;-73
2023/05/07 08:05:58;;;;;;;;;1.00;1.00;;;;;18.60;100.00;101327.53;5054218;28;45688;-73
2023/05/07 08:08:23;;;;;;;;;1.00;1.00;;;;;18.65;100.00;101324.81;5056363;28;46625;-73
2023/05/07 08:10:50;;;;;;;;;1.00;1.00;;;;;18.70;100.00;101323.88;5053657;28;45486;-74
2023/05/07 08:13:15;;;;;;;;;1.00;1.00;;;;;18.80;100.00;101325.50;5052384;28;46076;-72
2023/05/07 08:15:41;;;;;;;;;2.67;1.00;;;;;18.90;100.00;101328.91;5056298;28;45260;-73
2023/05/07 08:18:06;;;;;;;;;2.00;2.00;;;;;19.01;100.00;101332.28;5053921;28;46410;-74
2023/05/07 08:20:31;;;;;;;;;0.33;0.33;;;;;19.09;100.00;101326.84;5056821;28;67228;-73
2023/05/07 08:22:57;;;;;;;;;0.00;0.00;;;;;19.21;100.00;101333.78;5058296;28;45259;-73
2023/05/07 08:25:22;;;;;;;;;0.00;0.00;;;;;19.34;100.00;101338.91;5058571;28;45396;-72
2023/05/07 08:27:48;;;;;;;;;2.33;1.00;;;;;19.49;100.00;101343.09;5056390;28;46176;-74
2023/05/07 08:30:13;;;;;;;;;1.00;1.00;;;;;19.58;100.00;101340.25;5056870;28;45335;-73
2023/05/07 08:32:39;;;;;;;;;2.00;2.00;;;;;19.67;100.00;101352.66;5057071;28;45499;-72
2023/05/07 08:35:05;;;;;;;;;1.33;1.33;;;;;19.71;100.00;101354.38;5049256;28;60598;-73
2023/05/07 08:37:30;;;;;;;;;5.00;3.00;;;;;19.74;100.00;101354.28;5064239;28;48002;-73
2023/05/07 08:39:55;;;;;;;;;3.33;1.67;;;;;19.75;100.00;101349.81;5054250;28;66148;-72
2023/05/07 08:42:23;;;;;;;;;1.33;1.33;;;;;19.76;100.00;101352.47;5053469;28;45415;-72
2023/05/07 08:44:52;;;;;;;;;2.33;0.67;;;;;19.71;100.00;101351.69;5053898;28;45489;-72
2023/05/07 08:47:18;;;;;;;;;0.33;0.33;;;;;19.68;100.00;101353.53;5055016;28;46573;-73
2023/05/07 08:49:44;;;;;;;;;0.33;0.33;;;;;19.66;100.00;101358.03;5056402;28;45406;-73
2023/05/07 08:52:09;;;;;;;;;4.00;1.33;;;;;19.63;100.00;101357.16;5054227;28;45699;-74
2023/05/07 08:54:36;;;;;;;;;1.33;1.33;;;;;19.62;100.00;101363.44;5053937;28;45634;-74
2023/05/07 08:57:02;;;;;;;;;1.67;1.33;;;;;19.62;100.00;101366.13;5048698;28;46337;-74
2023/05/07 08:59:27;;;;;;;;;2.00;2.00;;;;;19.60;100.00;101362.59;5051083;28;45863;-74
2023/05/07 09:01:53;;;;;;;;;2.33;2.33;;;;;19.58;100.00;101366.16;5050514;28;54538;-74
2023/05/07 09:04:18;;;;;;;;;0.33;0.33;;;;;19.60;100.00;101365.28;5054198;28;61175;-74
2023/05/07 09:06:44;;;;;;;;;0.33;0.33;;;;;19.60;100.00;101364.34;5055249;28;68383;-73
2023/05/07 09:09:09;;;;;;;;;1.00;1.00;;;;;19.59;100.00;101359.91;5054261;28;45504;-76
2023/05/07 09:11:34;;;;;;;;;4.33;1.67;;;;;19.61;100.00;101360.78;5051122;28;59359;-75
2023/05/07 09:14:01;;;;;;;;;2.67;1.67;;;;;19.55;100.00;101361.75;5054130;28;56457;-74
2023/05/07 09:16:29;;;;;;;;;1.33;1.33;;;;;19.55;100.00;101361.75;5051542;28;45874;-74
2023/05/07 09:18:57;;;;;;;;;3.67;2.67;;;;;19.54;100.00;101365.31;5051512;28;45375;-74
2023/05/07 09:21:22;;;;;;;;;5.00;4.00;;;;;19.54;100.00;101359.97;5051319;28;45378;-75
2023/05/07 09:23:52;;;;;;;;;2.00;1.00;;;;;19.55;100.00;101363.56;5045422;28;45469;-74
2023/05/07 09:26:17;;;;;;;;;3.67;2.00;;;;;19.58;100.00;101364.38;5045646;28;46559;-77
2023/05/07 09:28:46;;;;;;;;;1.33;1.33;;;;;19.57;100.00;101361.72;5052748;28;45498;-76
2023/05/07 09:31:11;;;;;;;;;1.67;1.67;;;;;19.57;100.00;101359.91;5053510;28;45643;-76
2023/05/07 09:33:38;;;;;;;;;1.00;1.00;;;;;19.59;100.00;101370.63;5046673;28;45601;-75
2023/05/07 09:36:08;;;;;;;;;1.67;1.67;;;;;19.56;100.00;101366.19;5048217;28;47317;-77
2023/05/07 09:38:34;;;;;;;;;2.33;2.33;;;;;19.56;100.00;101365.31;5043331;28;45468;-76
2023/05/07 09:41:11;;;;;;;;;3.33;1.33;;;;;19.57;100.00;101372.44;5047879;28;46909;-78
2023/05/07 09:43:37;;;;;;;;;0.67;0.67;;;;;19.61;100.00;101369.72;5045877;28;45561;-76
2023/05/07 09:46:14;;;;;;;;;2.00;2.00;;;;;19.70;100.00;101371.31;5052272;28;46389;-76
2023/05/07 09:48:41;;;;;;;;;1.67;1.67;;;;;19.84;100.00;101371.97;5047577;28;45676;-76
2023/05/07 09:51:16;;;;;;;;;4.00;2.33;;;;;19.95;100.00;101361.03;5044404;28;45549;-75
2023/05/07 09:53:43;;;;;;;;;3.33;2.67;;;;;20.02;100.00;101364.47;5051245;28;45505;-77
2023/05/07 09:56:08;;;;;;;;;1.00;1.00;;;;;20.08;100.00;101367.94;5029336;28;62323;-76
2023/05/07 09:58:36;;;;;;;;;2.00;2.00;;;;;20.08;100.00;101369.72;5055044;28;45718;-75
2023/05/07 10:01:02;;;;;;;;;0.67;0.67;;;;;20.07;100.00;101370.63;5046957;28;45485;-74
2023/05/07 10:03:29;;;;;;;;;1.33;1.33;;;;;20.07;100.00;101376.00;5045854;28;45504;-74
2023/05/07 10:05:55;;;;;;;;;2.33;2.33;;;;;20.01;100.00;101363.59;5060221;28;46529;-76
2023/05/07 10:08:20;;;;;;;;;3.00;3.00;;;;;19.99;100.00;101368.13;5062780;28;47052;-75
2023/05/07 10:10:46;;;;;;;;;4.00;4.00;;;;;19.98;100.00;101373.53;5039169;28;45485;-74
2023/05/07 10:13:11;;;;;;;;;4.00;4.00;;;;;19.98;100.00;101374.41;5043678;28;45616;-74
2023/05/07 10:15:37;;;;;;;;;3.00;3.00;;;;;19.99;100.00;101376.16;5044163;28;45512;-74
2023/05/07 10:18:03;;;;;;;;;1.67;1.67;;;;;19.99;100.00;101383.31;5047026;28;62832;-74
2023/05/07 10:20:29;;;;;;;;;1.67;1.67;;;;;20.01;100.00;101376.13;5051557;28;45323;-75
2023/05/07 10:22:56;;;;;;;;;2.00;2.00;;;;;20.01;100.00;101378.81;5047580;28;45264;-74
2023/05/07 10:25:25;;;;;;;;;4.33;3.00;;;;;20.04;100.00;101378.75;5045318;28;46400;-74
2023/05/07 10:27:52;;;;;;;;;2.00;2.00;;;;;20.11;100.00;101380.38;5047992;28;45533;-76
2023/05/07 10:30:37;;;;;;;;;3.00;3.00;;;;;20.19;100.00;101380.22;5048245;28;45381;-74
2023/05/07 10:33:05;;;;;;;;;3.67;2.67;;;;;20.24;100.00;101384.63;5046088;28;45464;-74
2023/05/07 10:35:36;;;;;;;;;4.67;2.67;;;;;20.31;100.00;101386.25;5041690;28;45640;-74
2023/05/07 10:38:02;;;;;;;;;5.33;3.00;;;;;20.36;100.00;101383.47;5046089;28;45494;-74
2023/05/07 10:40:28;;;;;;;;;4.00;4.00;;;;;20.40;100.00;101378.03;5047804;28;45481;-74
2023/05/07 10:42:57;;;;;;;;;2.67;2.67;;;;;20.42;100.00;101392.28;5052626;28;49908;-74
2023/05/07 10:45:23;;;;;;;;;2.00;2.00;;;;;20.50;100.00;101389.44;5053742;28;46952;-75
2023/05/07 10:48:09;;;;;;;;;3.00;3.00;;;;;20.64;100.00;101391.84;5053744;28;45488;-75
2023/05/07 10:50:35;;;;;;;;;3.00;3.00;;;;;20.75;100.00;101399.66;5045795;28;45159;-74
2023/05/07 10:53:19;;;;;;;;;4.67;3.00;;;;;20.84;100.00;101394.09;5049838;28;45442;-74
2023/05/07 10:55:47;;;;;;;;;7.00;4.00;;;;;20.95;100.00;101386.69;5053641;28;46030;-74
2023/05/07 10:58:21;;;;;;;;;2.00;2.00;;;;;21.18;100.00;101388.81;5068480;28;46197;-74
2023/05/07 11:00:51;;;;;;;;;3.00;3.00;;;;;21.50;100.00;101387.19;5052262;28;45497;-73
2023/05/07 11:03:16;;;;;;;;;4.00;2.00;;;;;21.81;100.00;101390.84;5054009;28;45609;-74
2023/05/07 11:05:42;;;;;;;;;4.00;3.67;;;;;22.05;100.00;101388.38;5047182;28;45859;-74
2023/05/07 11:08:08;;;;;;;;;3.33;3.33;;;;;22.29;100.00;101392.25;5053137;28;45525;-74
2023/05/07 11:10:49;;;;;;;;;2.00;2.00;;;;;22.48;100.00;101391.69;5052819;28;45373;-75